Time;durP1;ratioP1;P1;durP2;ratioP2;P2;SDS_P1;SDS_P2;PMS_P1;PMS_P2;Temp;Humidity;BMP_temperature;BMP_pressure;BME280_temperature;BME280_humidity;BME280_pressure;Samples;Min_cycle;Max_cycle;Signal;HPM_P1;HPM_P2
2023/11/05 00:01:27;;;;;;;10.25;2.28;;;;;;;11.92;100.00;97030.66;5336363;27;20031;-74
2023/11/05 00:04:07;;;;;;;8.55;2.30;;;;;;;12.08;100.00;97030.94;5336835;27;20035;-74
2023/11/05 00:06:45;;;;;;;9.00;2.17;;;;;;;11.91;100.00;97028.28;5317449;27;20564;-74
2023/11/05 00:09:19;;;;;;;10.93;2.70;;;;;;;11.92;100.00;97025.41;5335484;27;20026;-76
2023/11/05 00:12:00;;;;;;;10.43;2.28;;;;;;;12.03;100.00;97028.22;5335598;27;20023;-74
2023/11/05 00:14:39;;;;;;;9.55;2.38;;;;;;;11.96;100.00;97019.69;5335749;27;20023;-74
2023/11/05 00:17:14;;;;;;;8.90;2.72;;;;;;;11.99;100.00;97022.66;5335234;27;20033;-75
2023/11/05 00:19:55;;;;;;;9.52;2.88;;;;;;;12.19;100.00;97017.00;5335417;27;20024;-74
2023/11/05 00:22:35;;;;;;;9.45;3.08;;;;;;;12.08;100.00;97023.06;5331837;27;20698;-74
2023/11/05 00:25:10;;;;;;;11.20;2.65;;;;;;;12.01;100.00;97012.75;5315147;27;20028;-74
2023/11/05 00:27:44;;;;;;;11.35;2.78;;;;;;;12.09;100.00;97014.19;5327672;27;20054;-73
2023/11/05 00:30:19;;;;;;;9.15;2.35;;;;;;;11.99;100.00;97006.91;5329657;27;20034;-74
2023/11/05 00:32:59;;;;;;;14.05;3.33;;;;;;;11.96;100.00;97004.75;5332355;27;20027;-73
2023/11/05 00:35:33;;;;;;;11.68;3.15;;;;;;;11.96;100.00;97004.75;5334338;27;20035;-74
2023/11/05 00:38:55;;;;;;;9.70;2.88;;;;;;;12.30;100.00;97000.41;5335544;27;20034;-74
2023/11/05 00:41:40;;;;;;;8.82;2.60;;;;;;;12.17;100.00;97001.50;5326113;27;20050;-74
2023/11/05 00:44:14;;;;;;;7.38;2.00;;;;;;;12.09;100.00;96990.59;5333271;27;20893;-75
2023/11/05 00:46:50;;;;;;;8.63;2.22;;;;;;;11.92;100.00;96985.25;5336310;27;20042;-73
2023/11/05 00:49:27;;;;;;;9.07;2.20;;;;;;;12.05;100.00;96992.09;5316544;27;20038;-74
2023/11/05 00:51:59;;;;;;;10.05;2.25;;;;;;;11.87;100.00;96985.97;5335262;27;20038;-73
2023/11/05 00:54:54;;;;;;;8.73;2.40;;;;;;;11.97;100.00;96980.13;5334807;27;20365;-74
2023/11/05 00:57:29;;;;;;;9.98;2.55;;;;;;;11.95;100.00;96976.94;5335040;27;20038;-75
2023/11/05 01:00:04;;;;;;;9.98;2.28;;;;;;;11.97;100.00;96974.88;5334714;27;20035;-74
2023/11/05 01:02:39;;;;;;;7.93;2.22;;;;;;;11.95;100.00;96984.00;5334065;27;20404;-74
2023/11/05 01:05:11;;;;;;;9.68;2.00;;;;;;;11.97;100.00;96979.31;5332887;27;20035;-74
2023/11/05 01:07:49;;;;;;;9.20;2.30;;;;;;;12.00;100.00;96978.84;5331840;27;20100;-74
2023/11/05 01:10:26;;;;;;;9.05;2.67;;;;;;;11.91;100.00;96967.94;5335128;27;20599;-73
2023/11/05 01:13:03;;;;;;;9.77;2.15;;;;;;;11.87;100.00;96970.22;5336143;27;20031;-76
2023/11/05 01:15:41;;;;;;;12.30;2.25;;;;;;;11.96;100.00;96965.41;5317046;27;20046;-73
2023/11/05 01:18:25;;;;;;;8.82;2.42;;;;;;;11.92;100.00;96969.53;5332888;27;20555;-76
2023/11/05 01:21:13;;;;;;;7.82;2.45;;;;;;;11.95;100.00;96970.91;5332333;27;20394;-73
2023/11/05 01:23:48;;;;;;;7.28;2.00;;;;;;;11.88;100.00;96966.56;5333712;27;20027;-75
2023/11/05 01:26:25;;;;;;;9.30;2.20;;;;;;;11.89;100.00;96965.56;5332583;27;20396;-73
2023/11/05 01:29:09;;;;;;;8.05;2.20;;;;;;;11.78;100.00;96963.75;5333798;27;20026;-73
2023/11/05 01:31:49;;;;;;;11.48;2.83;;;;;;;11.81;100.00;96955.38;5326887;27;20035;-75
2023/11/05 01:34:24;;;;;;;10.30;2.38;;;;;;;11.80;100.00;96964.28;5333355;27;20031;-73
2023/11/05 01:37:03;;;;;;;10.48;2.20;;;;;;;11.91;100.00;96953.00;5334961;27;20042;-73
2023/11/05 01:39:56;;;;;;;9.52;2.20;;;;;;;11.92;100.00;96949.34;5334858;27;20038;-73
2023/11/05 01:42:48;;;;;;;12.10;3.10;;;;;;;11.71;100.00;96949.19;5334916;27;20031;-74
2023/11/05 01:45:50;;;;;;;10.85;2.40;;;;;;;11.82;100.00;96948.31;5335807;27;20269;-74
2023/11/05 01:48:36;;;;;;;6.20;1.92;;;;;;;11.68;100.00;96948.59;5330985;27;20400;-76
2023/11/05 01:51:15;;;;;;;7.57;2.13;;;;;;;11.75;100.00;96940.59;5333857;27;20031;-74
2023/11/05 01:54:16;;;;;;;7.70;1.80;;;;;;;11.76;100.00;96930.91;5337268;28;20035;-76
2023/11/05 01:56:53;;;;;;;8.90;2.70;;;;;;;11.59;100.00;96922.97;5332008;28;20042;-74
2023/11/05 01:59:33;;;;;;;7.07;2.03;;;;;;;11.70;100.00;96922.13;5330107;28;20066;-73
2023/11/05 02:02:22;;;;;;;5.03;1.63;;;;;;;11.83;100.00;96918.47;5334767;28;20384;-73
2023/11/05 02:04:55;;;;;;;7.03;1.80;;;;;;;11.64;100.00;96923.88;5334915;28;20511;-73
2023/11/05 02:07:27;;;;;;;9.15;2.42;;;;;;;11.60;100.00;96917.50;5334240;28;20043;-74
2023/11/05 02:09:59;;;;;;;7.90;1.85;;;;;;;11.61;100.00;96905.19;5334737;27;20040;-74
2023/11/05 02:12:31;;;;;;;7.03;2.17;;;;;;;11.62;100.00;96919.88;5334592;28;20184;-74
2023/11/05 02:15:05;;;;;;;6.97;1.77;;;;;;;11.59;100.00;96913.31;5334269;28;20020;-74
2023/11/05 02:17:36;;;;;;;7.18;1.67;;;;;;;11.62;100.00;96910.19;5334798;28;20031;-73
2023/11/05 02:20:09;;;;;;;6.45;1.67;;;;;;;11.63;100.00;96918.84;5336218;28;20379;-74
2023/11/05 02:22:41;;;;;;;8.18;1.58;;;;;;;11.68;100.00;96911.09;5334136;28;20035;-74
2023/11/05 02:25:18;;;;;;;4.32;1.23;;;;;;;11.66;100.00;96910.53;5324440;28;20390;-73
2023/11/05 02:27:51;;;;;;;4.90;1.40;;;;;;;11.63;100.00;96901.31;5330763;28;20050;-73
2023/11/05 02:30:23;;;;;;;;;;;;;;;12.34;100.00;96901.00;5331520;28;20019;-74
2023/11/05 02:32:56;;;;;;;5.55;1.48;;;;;;;11.71;100.00;96912.47;5333206;28;20369;-74
2023/11/05 02:35:28;;;;;;;9.20;1.70;;;;;;;11.75;100.00;96917.00;5329955;28;20486;-74
2023/11/05 02:38:00;;;;;;;7.07;1.60;;;;;;;11.73;100.00;96911.19;5334189;28;20118;-74
2023/11/05 02:40:32;;;;;;;5.80;1.73;;;;;;;11.71;100.00;96912.47;5334037;27;20031;-74
2023/11/05 02:43:03;;;;;;;7.20;1.63;;;;;;;11.68;100.00;96913.72;5338636;27;20250;-74
2023/11/05 02:45:35;;;;;;;5.35;1.23;;;;;;;11.66;100.00;96915.75;5341368;27;20031;-74
2023/11/05 02:48:07;;;;;;;6.47;1.50;;;;;;;11.61;100.00;96908.59;5337799;27;20102;-74
2023/11/05 02:50:39;;;;;;;8.57;2.40;;;;;;;11.68;100.00;96905.84;5341170;27;20027;-74
2023/11/05 02:53:15;;;;;;;4.63;1.50;;;;;;;11.64;100.00;96907.34;5309822;27;20039;-74
2023/11/05 02:55:48;;;;;;;5.60;1.67;;;;;;;11.59;100.00;96894.97;5337113;27;20380;-74
2023/11/05 02:58:19;;;;;;;4.55;1.52;;;;;;;11.71;100.00;96902.78;5339836;27;20031;-74
2023/11/05 03:00:51;;;;;;;4.53;1.30;;;;;;;11.68;100.00;96908.47;5337973;27;20477;-74
2023/11/05 03:03:23;;;;;;;5.18;1.50;;;;;;;11.72;100.00;96906.19;5319510;27;20118;-74
2023/11/05 03:05:55;;;;;;;4.78;1.23;;;;;;;11.73;100.00;96897.28;5338843;27;20127;-74
2023/11/05 03:08:27;;;;;;;4.72;1.15;;;;;;;11.77;100.00;96906.28;5336357;27;20106;-74
2023/11/05 03:10:59;;;;;;;6.15;1.30;;;;;;;11.78;100.00;96900.81;5337715;27;20037;-73
2023/11/05 03:13:31;;;;;;;4.00;1.17;;;;;;;11.78;100.00;96902.63;5338793;27;20805;-74
2023/11/05 03:16:05;;;;;;;6.20;1.30;;;;;;;11.78;100.00;96900.81;5335754;27;20031;-73
2023/11/05 03:18:36;;;;;;;3.13;1.33;;;;;;;11.81;100.00;96889.03;5337318;27;20039;-74
2023/11/05 03:21:13;;;;;;;7.35;1.40;;;;;;;11.88;100.00;96887.91;5329065;27;20114;-74
2023/11/05 03:23:45;;;;;;;5.07;1.15;;;;;;;11.83;100.00;96887.00;5339273;27;20042;-74
2023/11/05 03:26:17;;;;;;;6.55;1.35;;;;;;;11.81;100.00;96891.66;5336384;27;20034;-74
2023/11/05 03:28:49;;;;;;;5.53;1.60;;;;;;;11.79;100.00;96876.16;5339345;27;20027;-74
2023/11/05 03:31:21;;;;;;;5.88;1.75;;;;;;;11.82;100.00;96888.81;5318503;27;20389;-74
2023/11/05 03:33:53;;;;;;;7.28;1.58;;;;;;;11.81;100.00;96891.66;5335367;27;20102;-74
2023/11/05 03:36:25;;;;;;;6.53;2.10;;;;;;;11.80;100.00;96885.63;5338159;27;20125;-75
2023/11/05 03:38:57;;;;;;;7.63;1.23;;;;;;;11.73;100.00;96882.34;5338301;27;20027;-75
2023/11/05 03:41:28;;;;;;;5.25;1.08;;;;;;;11.77;100.00;96893.94;5338296;27;20486;-75
2023/11/05 03:44:00;;;;;;;2.90;1.05;;;;;;;11.69;100.00;96887.25;5335669;27;20118;-75
2023/11/05 03:46:32;;;;;;;4.93;1.20;;;;;;;11.69;100.00;96899.56;5336015;27;20110;-74
2023/11/05 03:49:04;;;;;;;8.25;1.60;;;;;;;11.67;100.00;96893.78;5328895;27;20027;-75
2023/11/05 03:51:36;;;;;;;5.10;1.30;;;;;;;11.67;100.00;96894.56;5336996;27;20130;-75
2023/11/05 03:54:08;;;;;;;6.30;1.77;;;;;;;11.64;100.00;96896.88;5338593;27;20119;-75
2023/11/05 03:56:41;;;;;;;6.32;1.30;;;;;;;11.70;100.00;96898.53;5335574;27;20040;-75
2023/11/05 03:59:13;;;;;;;6.28;1.98;;;;;;;11.71;100.00;96899.38;5317311;27;20043;-75
2023/11/05 04:01:51;;;;;;;5.82;1.60;;;;;;;11.79;100.00;96902.41;5335166;27;20060;-75
2023/11/05 04:04:23;;;;;;;4.95;1.00;;;;;;;11.68;100.00;96909.28;5337081;27;20038;-75
2023/11/05 04:06:56;;;;;;;5.90;1.50;;;;;;;11.72;100.00;96909.59;5334928;27;20038;-74
2023/11/05 04:09:27;;;;;;;8.57;1.77;;;;;;;11.78;100.00;96902.63;5339039;27;20024;-74
2023/11/05 04:11:59;;;;;;;4.30;1.25;;;;;;;11.76;100.00;96905.47;5319292;27;20620;-74
2023/11/05 04:14:31;;;;;;;6.03;1.30;;;;;;;11.78;100.00;96908.69;5327990;27;20106;-74
2023/11/05 04:17:03;;;;;;;3.97;1.25;;;;;;;11.71;100.00;96897.53;5334804;27;20072;-74
2023/11/05 04:19:35;;;;;;;5.60;1.15;;;;;;;11.75;100.00;96900.47;5337075;27;20107;-74
2023/11/05 04:22:07;;;;;;;6.05;1.20;;;;;;;11.76;100.00;96904.69;5334150;27;20122;-74
2023/11/05 04:24:39;;;;;;;4.38;1.17;;;;;;;11.76;100.00;96905.47;5315885;27;20045;-74
2023/11/05 04:27:11;;;;;;;3.85;1.38;;;;;;;11.75;100.00;96909.13;5336337;27;20064;-75
2023/11/05 04:29:42;;;;;;;3.95;1.17;;;;;;;11.75;100.00;96910.97;5334574;27;20033;-75
2023/11/05 04:32:15;;;;;;;3.67;1.13;;;;;;;11.78;100.00;96910.47;5335320;27;20031;-75
2023/11/05 04:34:46;;;;;;;6.70;1.42;;;;;;;11.80;100.00;96905.81;5336667;27;20046;-75
2023/11/05 04:37:19;;;;;;;3.78;1.20;;;;;;;11.79;100.00;96914.72;5337164;27;20476;-75
2023/11/05 04:39:51;;;;;;;7.03;1.50;;;;;;;11.85;100.00;96911.16;5332979;27;20031;-74
2023/11/05 04:42:23;;;;;;;5.88;1.30;;;;;;;11.76;100.00;96902.84;5331389;27;20035;-74
2023/11/05 04:44:55;;;;;;;3.97;1.20;;;;;;;11.82;100.00;96906.34;5335999;27;20035;-75
2023/11/05 04:47:27;;;;;;;5.55;1.40;;;;;;;11.83;100.00;96908.78;5335754;27;20045;-75
2023/11/05 04:49:59;;;;;;;3.78;1.38;;;;;;;11.83;100.00;96911.41;5335583;27;20037;-75
2023/11/05 04:52:31;;;;;;;4.82;1.50;;;;;;;11.85;100.00;96913.78;5336850;27;20577;-75
2023/11/05 04:55:03;;;;;;;4.10;1.20;;;;;;;11.84;100.00;96915.63;5335906;27;20579;-75
2023/11/05 04:57:34;;;;;;;5.38;1.38;;;;;;;11.88;100.00;96913.31;5336915;27;20065;-75
2023/11/05 05:00:08;;;;;;;4.35;1.27;;;;;;;11.84;100.00;96918.25;5335806;27;20031;-75
2023/11/05 05:02:40;;;;;;;5.45;1.30;;;;;;;11.84;100.00;96920.06;5336006;27;20023;-75
2023/11/05 05:05:12;;;;;;;4.50;1.70;;;;;;;11.84;100.00;96918.25;5334290;27;20072;-75
2023/11/05 05:07:44;;;;;;;4.40;1.00;;;;;;;11.85;100.00;96919.81;5328321;27;20043;-75
2023/11/05 05:10:16;;;;;;;4.13;1.30;;;;;;;11.86;100.00;96920.66;5337320;27;20027;-75
2023/11/05 05:12:48;;;;;;;2.40;0.93;;;;;;;11.86;100.00;96920.66;5336106;27;20480;-75
2023/11/05 05:15:20;;;;;;;2.72;1.05;;;;;;;11.86;100.00;96916.19;5338142;27;20114;-75
2023/11/05 05:17:51;;;;;;;6.07;1.77;;;;;;;11.84;100.00;96925.31;5336230;27;20031;-75
2023/11/05 05:20:23;;;;;;;5.78;1.48;;;;;;;11.86;100.00;96913.56;5332765;27;20031;-75
2023/11/05 05:22:55;;;;;;;4.20;1.13;;;;;;;11.81;100.00;96923.13;5335898;27;20046;-75
2023/11/05 05:25:28;;;;;;;4.47;1.13;;;;;;;11.89;100.00;96920.16;5317862;27;20035;-75
2023/11/05 05:27:59;;;;;;;4.20;1.35;;;;;;;11.84;100.00;96933.19;5336893;27;20039;-75
2023/11/05 05:30:31;;;;;;;4.15;1.48;;;;;;;11.88;100.00;96932.47;5333393;27;20032;-75
2023/11/05 05:33:03;;;;;;;6.20;1.75;;;;;;;11.83;100.00;96932.41;5335254;27;20027;-75
2023/11/05 05:35:35;;;;;;;2.78;1.05;;;;;;;11.92;100.00;96941.47;5320319;27;20110;-75
2023/11/05 05:38:07;;;;;;;4.28;1.30;;;;;;;11.93;100.00;96940.47;5335686;27;20038;-75
2023/11/05 05:40:39;;;;;;;5.03;1.60;;;;;;;11.93;100.00;96940.47;5335054;27;20076;-75
2023/11/05 05:43:11;;;;;;;5.57;1.40;;;;;;;11.87;100.00;96944.00;5335217;27;20037;-75
2023/11/05 05:45:43;;;;;;;4.15;1.35;;;;;;;11.93;100.00;96948.34;5336655;27;20025;-75
2023/11/05 05:48:15;;;;;;;3.58;1.10;;;;;;;11.96;100.00;96949.66;5338060;27;20472;-75
2023/11/05 05:50:46;;;;;;;3.63;1.40;;;;;;;11.95;100.00;96953.34;5335796;27;20452;-75
2023/11/05 05:53:18;;;;;;;4.18;1.20;;;;;;;11.97;100.00;96953.09;5337628;27;20140;-75
2023/11/05 05:55:50;;;;;;;4.22;1.20;;;;;;;11.99;100.00;96961.53;5336092;28;20106;-75
2023/11/05 05:58:22;;;;;;;5.88;1.10;;;;;;;12.01;100.00;96954.22;5335360;28;20027;-75
2023/11/05 06:00:54;;;;;;;5.25;1.20;;;;;;;12.02;100.00;96959.25;5335235;27;20036;-75
2023/11/05 06:03:26;;;;;;;6.63;1.60;;;;;;;12.01;100.00;96959.44;5334619;28;20684;-75
2023/11/05 06:05:58;;;;;;;4.88;1.42;;;;;;;11.98;100.00;96976.47;5334805;28;20032;-75
2023/11/05 06:08:30;;;;;;;4.43;1.60;;;;;;;11.91;100.00;96970.56;5335498;28;20472;-75
2023/11/05 06:11:03;;;;;;;4.53;1.50;;;;;;;11.87;100.00;96964.19;5334481;27;20382;-75
2023/11/05 06:13:37;;;;;;;4.35;1.45;;;;;;;12.03;100.00;96973.16;5335128;28;20023;-75
2023/11/05 06:16:08;;;;;;;6.47;1.88;;;;;;;11.98;100.00;96980.94;5339717;27;20034;-75
2023/11/05 06:18:40;;;;;;;4.72;1.60;;;;;;;11.97;100.00;96979.31;5343052;27;20539;-75
2023/11/05 06:21:13;;;;;;;5.60;1.63;;;;;;;11.97;100.00;96971.44;5339872;27;20464;-75
2023/11/05 06:23:45;;;;;;;5.13;1.80;;;;;;;12.00;100.00;96970.97;5340860;27;20023;-75
2023/11/05 06:26:17;;;;;;;5.93;1.50;;;;;;;11.97;100.00;96977.50;5343289;27;20105;-75
2023/11/05 06:28:48;;;;;;;5.85;1.73;;;;;;;11.97;100.00;96982.75;5333937;27;20024;-75
2023/11/05 06:31:20;;;;;;;5.65;1.40;;;;;;;11.97;100.00;96988.00;5342030;27;20030;-75
2023/11/05 06:33:52;;;;;;;5.13;1.85;;;;;;;11.93;100.00;96997.34;5341173;27;20049;-75
2023/11/05 06:36:24;;;;;;;4.35;1.50;;;;;;;11.97;100.00;97002.91;5343295;27;20027;-75
2023/11/05 06:38:56;;;;;;;6.70;1.45;;;;;;;11.99;100.00;97003.50;5339680;27;20045;-75
2023/11/05 06:41:28;;;;;;;5.88;1.40;;;;;;;11.96;100.00;97004.75;5341490;27;20572;-75
2023/11/05 06:44:00;;;;;;;5.60;1.90;;;;;;;11.97;100.00;97010.78;5340359;27;20584;-75
2023/11/05 06:46:32;;;;;;;4.25;1.65;;;;;;;11.98;100.00;97012.41;5339309;27;20446;-75
2023/11/05 06:49:03;;;;;;;4.75;1.50;;;;;;;11.96;100.00;97019.69;5339032;27;20430;-75
2023/11/05 06:51:35;;;;;;;5.75;1.67;;;;;;;11.96;100.00;97028.34;5339573;27;20023;-75
2023/11/05 06:54:08;;;;;;;5.55;1.70;;;;;;;11.96;100.00;97033.59;5339721;27;20027;-75
2023/11/05 06:56:39;;;;;;;7.65;2.05;;;;;;;11.99;100.00;97027.91;5329162;27;20039;-75
2023/11/05 06:59:11;;;;;;;5.55;1.65;;;;;;;11.98;100.00;97022.91;5338808;27;20039;-75
2023/11/05 07:01:44;;;;;;;8.20;1.77;;;;;;;12.00;100.00;97033.94;5338616;27;20031;-75
2023/11/05 07:04:15;;;;;;;8.50;2.42;;;;;;;12.04;100.00;97048.19;5336823;27;20038;-75
2023/11/05 07:06:49;;;;;;;6.32;2.03;;;;;;;12.00;100.00;97045.22;5339115;27;20392;-75
2023/11/05 07:09:21;;;;;;;6.43;1.60;;;;;;;12.12;100.00;97053.06;5339855;27;20023;-75
2023/11/05 07:11:53;;;;;;;6.70;1.67;;;;;;;12.13;100.00;97052.06;5338485;27;20279;-75
2023/11/05 07:14:25;;;;;;;8.50;2.38;;;;;;;12.17;100.00;97061.06;5335880;27;20118;-75
2023/11/05 07:16:57;;;;;;;7.00;2.03;;;;;;;12.19;100.00;97056.34;5338146;27;20023;-75
2023/11/05 07:19:29;;;;;;;7.72;2.30;;;;;;;12.22;100.00;97062.97;5333043;27;20033;-75
2023/11/05 07:22:01;;;;;;;6.18;1.70;;;;;;;12.28;100.00;97067.28;5336016;27;20028;-75
2023/11/05 07:24:32;;;;;;;7.68;1.85;;;;;;;12.28;100.00;97070.72;5331706;27;20027;-75
2023/11/05 07:27:05;;;;;;;5.68;1.42;;;;;;;12.27;100.00;97074.34;5338108;27;20118;-75
2023/11/05 07:29:37;;;;;;;8.53;2.30;;;;;;;12.32;100.00;97074.47;5334819;27;20045;-75
2023/11/05 07:32:09;;;;;;;4.53;1.60;;;;;;;12.22;100.00;97076.09;5316889;27;20276;-75
2023/11/05 07:34:40;;;;;;;4.63;1.58;;;;;;;12.18;100.00;97078.38;5338238;27;20031;-74
2023/11/05 07:37:13;;;;;;;6.63;1.67;;;;;;;12.21;100.00;97088.41;5334831;27;20031;-75
2023/11/05 07:39:45;;;;;;;7.53;2.28;;;;;;;12.28;100.00;97096.97;5336227;27;20031;-75
2023/11/05 07:42:17;;;;;;;6.15;2.10;;;;;;;12.33;100.00;97098.88;5319456;27;20591;-75
2023/11/05 07:44:49;;;;;;;8.77;2.53;;;;;;;12.36;100.00;97099.22;5337905;27;20465;-74
2023/11/05 07:47:20;;;;;;;8.05;1.73;;;;;;;12.38;100.00;97106.84;5335920;27;20587;-75
2023/11/05 07:49:52;;;;;;;6.47;1.90;;;;;;;12.35;100.00;97112.56;5335546;27;20405;-75
2023/11/05 07:52:24;;;;;;;8.93;2.10;;;;;;;12.34;100.00;97117.00;5332488;27;20053;-75
2023/11/05 07:54:57;;;;;;;8.77;2.40;;;;;;;12.32;100.00;97126.16;5336652;27;20064;-75
2023/11/05 07:57:29;;;;;;;8.98;2.17;;;;;;;12.41;100.00;97132.63;5338496;27;20023;-75
2023/11/05 08:00:03;;;;;;;6.82;1.90;;;;;;;12.44;100.00;97136.63;5334994;27;20137;-75
2023/11/05 08:02:35;;;;;;;8.85;2.65;;;;;;;12.52;100.00;97134.44;5335461;27;20042;-74
2023/11/05 08:05:08;;;;;;;8.73;2.50;;;;;;;12.57;100.00;97144.22;5338247;27;20019;-74
2023/11/05 08:07:41;;;;;;;5.05;2.00;;;;;;;12.66;100.00;97148.09;5336336;27;20034;-75
2023/11/05 08:10:13;;;;;;;5.50;1.92;;;;;;;12.68;100.00;97148.63;5337652;27;20034;-74
2023/11/05 08:12:45;;;;;;;9.60;3.05;;;;;;;12.73;100.00;97151.38;5337013;27;20026;-75
2023/11/05 08:15:17;;;;;;;5.90;2.20;;;;;;;12.77;100.00;97155.13;5335645;27;20031;-74
2023/11/05 08:17:49;;;;;;;7.63;2.28;;;;;;;12.81;100.00;97168.59;5335298;27;20047;-75
2023/11/05 08:20:21;;;;;;;6.68;1.83;;;;;;;12.85;100.00;97160.00;5330721;27;20099;-74
2023/11/05 08:22:53;;;;;;;6.97;2.17;;;;;;;12.84;100.00;97170.72;5339164;27;20027;-75
2023/11/05 08:25:26;;;;;;;6.18;2.55;;;;;;;12.80;100.00;97159.88;5337936;27;20114;-77
2023/11/05 08:27:57;;;;;;;5.67;2.20;;;;;;;12.91;100.00;97176.66;5316062;27;20046;-75
2023/11/05 08:30:29;;;;;;;8.52;2.15;;;;;;;12.92;100.00;97178.25;5337524;27;20536;-76
2023/11/05 08:33:01;;;;;;;6.28;2.10;;;;;;;12.89;100.00;97181.34;5334841;27;20570;-75
2023/11/05 08:35:33;;;;;;;6.07;2.13;;;;;;;12.87;100.00;97192.06;5336921;27;20381;-75
2023/11/05 08:38:05;;;;;;;7.47;1.98;;;;;;;12.91;100.00;97200.28;5337717;27;20029;-75
2023/11/05 08:40:38;;;;;;;6.88;2.13;;;;;;;12.93;100.00;97198.25;5336496;27;20083;-77
2023/11/05 08:43:10;;;;;;;8.55;2.13;;;;;;;12.96;100.00;97210.13;5333142;27;20542;-75
2023/11/05 08:45:41;;;;;;;6.82;1.90;;;;;;;12.95;100.00;97213.75;5330096;27;20111;-74
2023/11/05 08:48:13;;;;;;;7.82;1.95;;;;;;;12.89;100.00;97213.66;5335584;27;20106;-75
2023/11/05 08:50:45;;;;;;;6.85;2.25;;;;;;;12.96;100.00;97233.75;5337471;27;20080;-76
2023/11/05 08:53:19;;;;;;;7.03;2.22;;;;;;;12.92;100.00;97228.19;5336113;27;20388;-76
2023/11/05 08:55:51;;;;;;;4.78;1.98;;;;;;;12.97;100.00;97236.16;5338716;27;20027;-74
2023/11/05 08:58:23;;;;;;;7.97;2.27;;;;;;;12.95;100.00;97234.78;5339201;27;20034;-75
2023/11/05 09:00:56;;;;;;;5.60;2.17;;;;;;;12.98;100.00;97250.06;5317476;27;20130;-75
2023/11/05 09:03:27;;;;;;;7.40;2.10;;;;;;;13.01;100.00;97242.53;5336476;27;20038;-75
2023/11/05 09:06:02;;;;;;;7.63;2.25;;;;;;;13.04;100.00;97260.47;5336678;27;20035;-74
2023/11/05 09:08:34;;;;;;;7.35;2.60;;;;;;;13.05;100.00;97261.25;5337004;27;20019;-75
2023/11/05 09:11:07;;;;;;;6.45;2.10;;;;;;;13.06;100.00;97262.84;5338262;27;20392;-75
2023/11/05 09:13:39;;;;;;;6.18;2.08;;;;;;;13.06;100.00;97268.88;5301509;28;20050;-75
2023/11/05 09:16:11;;;;;;;5.55;2.15;;;;;;;13.00;100.00;97269.03;5337709;27;20023;-74
2023/11/05 09:18:43;;;;;;;6.88;2.00;;;;;;;13.03;100.00;97279.91;5336940;27;20039;-75
2023/11/05 09:21:15;;;;;;;5.30;1.90;;;;;;;13.02;100.00;97288.00;5336283;27;20020;-76
2023/11/05 09:23:47;;;;;;;4.05;1.77;;;;;;;13.08;100.00;97284.44;5333511;27;20488;-75
2023/11/05 09:26:21;;;;;;;7.95;2.00;;;;;;;13.09;100.00;97288.66;5337955;27;20035;-75
2023/11/05 09:28:53;;;;;;;6.57;2.08;;;;;;;13.18;100.00;97289.88;5335228;27;20031;-75
2023/11/05 09:31:25;;;;;;;4.30;2.03;;;;;;;13.20;100.00;97293.09;5336405;27;20475;-76
2023/11/05 09:33:58;;;;;;;5.63;2.17;;;;;;;13.22;100.00;97306.81;5332586;27;20423;-76
2023/11/05 09:36:30;;;;;;;5.68;2.05;;;;;;;13.14;100.00;97301.88;5337139;27;20031;-75
2023/11/05 09:39:02;;;;;;;7.25;2.28;;;;;;;13.15;100.00;97321.91;5330897;27;20031;-75
2023/11/05 09:41:36;;;;;;;7.10;2.55;;;;;;;13.10;100.00;97322.56;5330424;27;20023;-75
2023/11/05 09:44:08;;;;;;;6.18;2.47;;;;;;;13.11;100.00;97326.81;5335289;27;20031;-75
2023/11/05 09:46:42;;;;;;;7.97;2.22;;;;;;;13.03;100.00;97339.50;5335963;27;20400;-74
2023/11/05 09:49:14;;;;;;;6.95;2.38;;;;;;;13.04;100.00;97338.50;5334619;27;20031;-74
2023/11/05 09:51:48;;;;;;;7.43;2.80;;;;;;;13.05;100.00;97355.84;5334973;27;20022;-75
2023/11/05 09:54:20;;;;;;;6.22;3.28;;;;;;;13.02;100.00;97364.19;5336090;27;20488;-75
2023/11/05 09:56:52;;;;;;;5.32;2.53;;;;;;;13.06;100.00;97370.59;5336657;28;20119;-75
2023/11/05 09:59:24;;;;;;;5.85;2.60;;;;;;;13.10;100.00;97377.75;5334791;27;20052;-76
2023/11/05 10:01:56;;;;;;;5.35;2.80;;;;;;;13.15;100.00;97369.22;5332118;28;20035;-74
2023/11/05 10:04:27;;;;;;;7.22;2.83;;;;;;;13.15;100.00;97403.38;5335940;28;20019;-75
2023/11/05 10:06:59;;;;;;;5.45;2.65;;;;;;;13.24;100.00;97401.22;5330529;28;20465;-75
2023/11/05 10:09:31;;;;;;;6.32;2.72;;;;;;;13.26;100.00;97402.59;5329728;28;20480;-75
2023/11/05 10:12:04;;;;;;;5.15;2.70;;;;;;;13.25;100.00;97416.75;5337016;28;20392;-75
2023/11/05 10:14:36;;;;;;;5.43;2.95;;;;;;;13.22;100.00;97432.97;5335754;28;20567;-75
2023/11/05 10:17:08;;;;;;;5.53;2.40;;;;;;;13.19;100.00;97430.00;5336059;28;20028;-75
2023/11/05 10:19:40;;;;;;;6.25;2.45;;;;;;;13.12;100.00;97445.88;5336415;28;20110;-75
2023/11/05 10:22:15;;;;;;;8.30;3.17;;;;;;;13.22;100.00;97454.00;5337882;28;20027;-75
2023/11/05 10:24:47;;;;;;;7.10;3.03;;;;;;;13.03;100.00;97465.63;5335130;28;20031;-74
2023/11/05 10:27:27;;;;;;;5.68;2.50;;;;;;;13.16;100.00;97470.69;5333986;28;20023;-75
2023/11/05 10:29:59;;;;;;;5.22;2.53;;;;;;;12.96;100.00;97481.53;5312972;28;21040;-74
2023/11/05 10:32:33;;;;;;;6.68;2.63;;;;;;;13.04;100.00;97486.44;5329896;28;20046;-75
2023/11/05 10:35:05;;;;;;;7.32;2.40;;;;;;;12.90;100.00;97492.94;5316238;28;20046;-75
2023/11/05 10:37:37;;;;;;;5.03;2.25;;;;;;;12.91;100.00;97499.78;5336876;28;20317;-75
2023/11/05 10:40:12;;;;;;;6.47;2.80;;;;;;;12.83;100.00;97508.81;5333157;28;20031;-74
2023/11/05 10:42:45;;;;;;;6.30;3.83;;;;;;;12.83;100.00;97508.81;5334130;28;20023;-74
2023/11/05 10:45:22;;;;;;;7.15;3.47;;;;;;;12.93;100.00;97518.78;5331531;28;20514;-75
2023/11/05 10:47:54;;;;;;;5.50;3.25;;;;;;;12.80;100.00;97532.91;5327503;28;20031;-75
2023/11/05 10:50:28;;;;;;;7.43;3.67;;;;;;;12.83;100.00;97548.22;5325265;27;20039;-77
2023/11/05 10:53:04;;;;;;;5.88;3.83;;;;;;;12.88;100.00;97550.97;5326710;28;20034;-76
2023/11/05 10:55:37;;;;;;;8.00;3.83;;;;;;;12.85;100.00;97569.03;5335452;28;20034;-75
2023/11/05 10:58:09;;;;;;;;;;;;;;;13.57;100.00;97553.13;5333128;28;20102;-76
2023/11/05 11:00:45;;;;;;;11.73;4.32;;;;;;;13.10;100.00;97574.88;5331049;28;20303;-77
2023/11/05 11:03:18;;;;;;;9.65;4.35;;;;;;;13.01;100.00;97585.97;5336939;27;20503;-76
2023/11/05 11:05:55;;;;;;;;;;;;;;;13.69;100.00;97595.19;5339185;27;20030;-76
2023/11/05 11:08:34;;;;;;;6.90;4.13;;;;;;;13.05;100.00;97605.50;5336841;27;19917;-75
2023/11/05 11:11:14;;;;;;;8.45;3.70;;;;;;;13.07;100.00;97611.34;5338202;27;20034;-75
2023/11/05 11:13:55;;;;;;;8.07;4.13;;;;;;;13.09;100.00;97611.91;5334321;27;20031;-76
2023/11/05 11:16:31;;;;;;;8.52;4.50;;;;;;;12.99;100.00;97637.91;5314267;27;20042;-75
2023/11/05 11:19:09;;;;;;;11.50;4.63;;;;;;;12.97;100.00;97632.91;5335788;27;20517;-75
2023/11/05 11:22:00;;;;;;;11.00;4.95;;;;;;;13.10;100.00;97645.84;5337662;27;20498;-75
2023/11/05 11:24:37;;;;;;;9.98;4.60;;;;;;;13.13;100.00;97650.66;5337718;27;20019;-75
2023/11/05 11:27:14;;;;;;;10.27;4.50;;;;;;;13.19;100.00;97648.97;5330277;27;20468;-75
2023/11/05 11:29:46;;;;;;;11.23;4.75;;;;;;;13.22;100.00;97663.47;5336749;27;20504;-75
2023/11/05 11:32:18;;;;;;;10.65;4.72;;;;;;;13.20;100.00;97665.53;5336800;27;20038;-75
2023/11/05 11:34:50;;;;;;;11.43;4.60;;;;;;;13.24;100.00;97679.88;5336891;27;20027;-75
2023/11/05 11:37:22;;;;;;;10.52;4.47;;;;;;;13.21;100.00;97683.69;5337527;27;20029;-77
2023/11/05 11:39:55;;;;;;;10.05;4.88;;;;;;;13.24;100.00;97687.75;5336279;27;20043;-76
2023/11/05 11:42:27;;;;;;;13.13;5.07;;;;;;;13.30;100.00;97698.19;5318183;27;20042;-75
2023/11/05 11:44:59;;;;;;;9.65;4.20;;;;;;;13.29;100.00;97703.63;5336634;27;20507;-75
2023/11/05 11:47:34;;;;;;;10.52;4.72;;;;;;;13.40;100.00;97708.13;5337792;27;20050;-75
2023/11/05 11:50:06;;;;;;;8.95;4.65;;;;;;;13.30;100.00;97705.25;5337821;27;20026;-75
2023/11/05 11:52:49;;;;;;;9.60;4.78;;;;;;;13.55;100.00;97715.59;5338227;27;20034;-75
2023/11/05 11:55:23;;;;;;;9.13;4.27;;;;;;;13.38;100.00;97721.50;5331073;27;20101;-75